sensor_id;sensor_type;location;lat;lon;timestamp;P1;durP1;ratioP1;P2;durP2;ratioP2
51558;SDS011;61650;48.882;2.092;2023-04-03T00:00:49;15.50;;;9.40;;
51558;SDS011;61650;48.882;2.092;2023-04-03T00:03:17;12.95;;;9.27;;
51558;SDS011;61650;48.882;2.092;2023-04-03T00:05:43;17.77;;;10.18;;
51558;SDS011;61650;48.882;2.092;2023-04-03T00:08:09;14.27;;;9.30;;
51558;SDS011;61650;48.882;2.092;2023-04-03T00:10:35;16.43;;;9.80;;
51558;SDS011;61650;48.882;2.092;2023-04-03T00:13:02;15.82;;;10.05;;
51558;SDS011;61650;48.882;2.092;2023-04-03T00:15:28;16.48;;;10.52;;
51558;SDS011;61650;48.882;2.092;2023-04-03T00:17:54;14.40;;;9.20;;
51558;SDS011;61650;48.882;2.092;2023-04-03T00:20:19;14.10;;;10.03;;
51558;SDS011;61650;48.882;2.092;2023-04-03T00:22:46;17.38;;;9.40;;
51558;SDS011;61650;48.882;2.092;2023-04-03T00:25:11;18.67;;;10.90;;
51558;SDS011;61650;48.882;2.092;2023-04-03T00:27:38;13.00;;;9.20;;
51558;SDS011;61650;48.882;2.092;2023-04-03T00:30:04;15.43;;;9.65;;
51558;SDS011;61650;48.882;2.092;2023-04-03T00:32:31;16.63;;;9.88;;
51558;SDS011;61650;48.882;2.092;2023-04-03T00:34:57;16.47;;;9.90;;
51558;SDS011;61650;48.882;2.092;2023-04-03T00:37:23;14.27;;;8.70;;
51558;SDS011;61650;48.882;2.092;2023-04-03T00:39:49;16.60;;;9.90;;
51558;SDS011;61650;48.882;2.092;2023-04-03T00:42:15;14.63;;;9.67;;
51558;SDS011;61650;48.882;2.092;2023-04-03T00:47:07;14.53;;;9.40;;
51558;SDS011;61650;48.882;2.092;2023-04-03T00:49:36;16.13;;;9.90;;
51558;SDS011;61650;48.882;2.092;2023-04-03T00:52:02;17.70;;;9.48;;
51558;SDS011;61650;48.882;2.092;2023-04-03T00:54:31;15.30;;;8.95;;
51558;SDS011;61650;48.882;2.092;2023-04-03T00:56:59;17.50;;;10.38;;
51558;SDS011;61650;48.882;2.092;2023-04-03T00:59:26;18.77;;;10.52;;
51558;SDS011;61650;48.882;2.092;2023-04-03T01:01:57;18.55;;;11.20;;
51558;SDS011;61650;48.882;2.092;2023-04-03T01:07:16;21.23;;;12.15;;
51558;SDS011;61650;48.882;2.092;2023-04-03T01:09:44;20.75;;;10.07;;
51558;SDS011;61650;48.882;2.092;2023-04-03T01:12:15;17.70;;;10.48;;
51558;SDS011;61650;48.882;2.092;2023-04-03T01:14:43;14.65;;;9.68;;
51558;SDS011;61650;48.882;2.092;2023-04-03T01:20:13;14.90;;;9.70;;
51558;SDS011;61650;48.882;2.092;2023-04-03T01:25:40;15.00;;;9.93;;
51558;SDS011;61650;48.882;2.092;2023-04-03T01:28:22;18.55;;;10.75;;
51558;SDS011;61650;48.882;2.092;2023-04-03T01:31:15;14.15;;;9.20;;
51558;SDS011;61650;48.882;2.092;2023-04-03T01:33:50;14.95;;;10.07;;
51558;SDS011;61650;48.882;2.092;2023-04-03T01:36:20;15.13;;;10.80;;
51558;SDS011;61650;48.882;2.092;2023-04-03T01:38:48;16.08;;;9.60;;
51558;SDS011;61650;48.882;2.092;2023-04-03T01:41:14;16.83;;;10.07;;
51558;SDS011;61650;48.882;2.092;2023-04-03T01:43:41;16.48;;;9.75;;
51558;SDS011;61650;48.882;2.092;2023-04-03T01:46:06;16.20;;;9.67;;
51558;SDS011;61650;48.882;2.092;2023-04-03T01:48:32;17.58;;;8.95;;
51558;SDS011;61650;48.882;2.092;2023-04-03T01:50:58;16.17;;;9.77;;
51558;SDS011;61650;48.882;2.092;2023-04-03T01:53:24;15.07;;;9.20;;
51558;SDS011;61650;48.882;2.092;2023-04-03T01:55:49;14.67;;;9.10;;
51558;SDS011;61650;48.882;2.092;2023-04-03T01:58:15;15.60;;;9.20;;
51558;SDS011;61650;48.882;2.092;2023-04-03T02:00:41;15.70;;;9.35;;
51558;SDS011;61650;48.882;2.092;2023-04-03T02:03:07;13.20;;;9.40;;
51558;SDS011;61650;48.882;2.092;2023-04-03T02:05:32;16.40;;;10.03;;
51558;SDS011;61650;48.882;2.092;2023-04-03T02:07:58;17.83;;;9.57;;
51558;SDS011;61650;48.882;2.092;2023-04-03T02:10:24;16.30;;;9.50;;
51558;SDS011;61650;48.882;2.092;2023-04-03T02:12:50;15.43;;;9.93;;
51558;SDS011;61650;48.882;2.092;2023-04-03T02:15:15;16.93;;;9.70;;
51558;SDS011;61650;48.882;2.092;2023-04-03T02:17:41;12.93;;;8.53;;
51558;SDS011;61650;48.882;2.092;2023-04-03T02:20:07;17.03;;;9.67;;
51558;SDS011;61650;48.882;2.092;2023-04-03T02:22:33;12.82;;;8.07;;
51558;SDS011;61650;48.882;2.092;2023-04-03T02:24:59;18.00;;;9.23;;
51558;SDS011;61650;48.882;2.092;2023-04-03T02:27:24;13.40;;;9.27;;
51558;SDS011;61650;48.882;2.092;2023-04-03T02:29:50;16.00;;;10.13;;
51558;SDS011;61650;48.882;2.092;2023-04-03T02:32:15;14.13;;;8.63;;
51558;SDS011;61650;48.882;2.092;2023-04-03T02:34:41;16.73;;;9.20;;
51558;SDS011;61650;48.882;2.092;2023-04-03T02:37:06;16.57;;;9.50;;
51558;SDS011;61650;48.882;2.092;2023-04-03T02:39:32;14.77;;;8.90;;
51558;SDS011;61650;48.882;2.092;2023-04-03T02:41:59;16.70;;;9.73;;
51558;SDS011;61650;48.882;2.092;2023-04-03T02:44:25;14.77;;;9.00;;
51558;SDS011;61650;48.882;2.092;2023-04-03T02:46:50;14.30;;;8.43;;
51558;SDS011;61650;48.882;2.092;2023-04-03T02:49:16;15.43;;;7.90;;
51558;SDS011;61650;48.882;2.092;2023-04-03T02:51:42;14.50;;;8.37;;
51558;SDS011;61650;48.882;2.092;2023-04-03T02:54:08;11.97;;;8.27;;
51558;SDS011;61650;48.882;2.092;2023-04-03T02:56:33;12.93;;;7.68;;
51558;SDS011;61650;48.882;2.092;2023-04-03T02:58:59;12.53;;;9.03;;
51558;SDS011;61650;48.882;2.092;2023-04-03T03:01:25;14.53;;;8.50;;
51558;SDS011;61650;48.882;2.092;2023-04-03T03:03:53;13.18;;;8.52;;
51558;SDS011;61650;48.882;2.092;2023-04-03T03:06:19;11.40;;;7.73;;
51558;SDS011;61650;48.882;2.092;2023-04-03T03:08:44;12.33;;;7.57;;
51558;SDS011;61650;48.882;2.092;2023-04-03T03:11:10;12.27;;;7.17;;
51558;SDS011;61650;48.882;2.092;2023-04-03T03:13:36;11.57;;;7.10;;
51558;SDS011;61650;48.882;2.092;2023-04-03T03:16:02;11.87;;;7.60;;
51558;SDS011;61650;48.882;2.092;2023-04-03T03:18:28;11.10;;;6.93;;
51558;SDS011;61650;48.882;2.092;2023-04-03T03:20:55;11.43;;;7.43;;
51558;SDS011;61650;48.882;2.092;2023-04-03T03:23:23;8.77;;;6.35;;
51558;SDS011;61650;48.882;2.092;2023-04-03T03:25:54;11.45;;;6.90;;
51558;SDS011;61650;48.882;2.092;2023-04-03T03:28:21;10.98;;;6.75;;
51558;SDS011;61650;48.882;2.092;2023-04-03T03:30:47;11.47;;;6.63;;
51558;SDS011;61650;48.882;2.092;2023-04-03T03:33:12;10.70;;;6.60;;
51558;SDS011;61650;48.882;2.092;2023-04-03T03:35:38;10.67;;;6.33;;
51558;SDS011;61650;48.882;2.092;2023-04-03T03:38:03;11.00;;;6.47;;
51558;SDS011;61650;48.882;2.092;2023-04-03T03:40:29;10.97;;;7.07;;
51558;SDS011;61650;48.882;2.092;2023-04-03T03:42:55;10.10;;;5.70;;
51558;SDS011;61650;48.882;2.092;2023-04-03T03:45:20;11.73;;;6.77;;
51558;SDS011;61650;48.882;2.092;2023-04-03T03:47:46;9.67;;;6.17;;
51558;SDS011;61650;48.882;2.092;2023-04-03T03:50:11;9.40;;;6.27;;
51558;SDS011;61650;48.882;2.092;2023-04-03T03:52:37;11.00;;;6.13;;
51558;SDS011;61650;48.882;2.092;2023-04-03T03:55:03;8.07;;;5.53;;
51558;SDS011;61650;48.882;2.092;2023-04-03T03:57:29;10.13;;;5.87;;
51558;SDS011;61650;48.882;2.092;2023-04-03T03:59:55;8.57;;;5.80;;
51558;SDS011;61650;48.882;2.092;2023-04-03T04:02:21;9.13;;;5.60;;
51558;SDS011;61650;48.882;2.092;2023-04-03T04:04:46;7.57;;;5.40;;
51558;SDS011;61650;48.882;2.092;2023-04-03T04:07:12;10.70;;;5.77;;
51558;SDS011;61650;48.882;2.092;2023-04-03T04:09:38;8.57;;;5.70;;
51558;SDS011;61650;48.882;2.092;2023-04-03T04:12:03;8.67;;;4.90;;
51558;SDS011;61650;48.882;2.092;2023-04-03T04:14:29;8.17;;;5.70;;
51558;SDS011;61650;48.882;2.092;2023-04-03T04:16:54;8.47;;;5.43;;
51558;SDS011;61650;48.882;2.092;2023-04-03T04:19:20;9.63;;;6.20;;
51558;SDS011;61650;48.882;2.092;2023-04-03T04:21:46;7.80;;;5.67;;
51558;SDS011;61650;48.882;2.092;2023-04-03T04:24:11;8.43;;;6.00;;
51558;SDS011;61650;48.882;2.092;2023-04-03T04:26:37;9.07;;;6.30;;
51558;SDS011;61650;48.882;2.092;2023-04-03T04:29:02;8.57;;;5.80;;
51558;SDS011;61650;48.882;2.092;2023-04-03T04:31:28;8.77;;;5.67;;
51558;SDS011;61650;48.882;2.092;2023-04-03T04:33:53;10.63;;;6.93;;
51558;SDS011;61650;48.882;2.092;2023-04-03T04:36:19;9.27;;;5.93;;
51558;SDS011;61650;48.882;2.092;2023-04-03T04:38:45;11.77;;;7.30;;
51558;SDS011;61650;48.882;2.092;2023-04-03T04:41:11;11.80;;;6.10;;
51558;SDS011;61650;48.882;2.092;2023-04-03T04:43:36;10.10;;;6.37;;
51558;SDS011;61650;48.882;2.092;2023-04-03T04:46:06;7.67;;;5.60;;
51558;SDS011;61650;48.882;2.092;2023-04-03T04:48:34;9.65;;;6.50;;
51558;SDS011;61650;48.882;2.092;2023-04-03T04:51:00;8.23;;;5.82;;
51558;SDS011;61650;48.882;2.092;2023-04-03T04:53:26;11.87;;;7.83;;
51558;SDS011;61650;48.882;2.092;2023-04-03T04:55:52;13.10;;;7.00;;
51558;SDS011;61650;48.882;2.092;2023-04-03T04:58:18;8.88;;;5.85;;
51558;SDS011;61650;48.882;2.092;2023-04-03T05:00:43;9.70;;;6.93;;
51558;SDS011;61650;48.882;2.092;2023-04-03T05:03:09;10.97;;;7.13;;
51558;SDS011;61650;48.882;2.092;2023-04-03T05:05:35;10.57;;;7.00;;
51558;SDS011;61650;48.882;2.092;2023-04-03T05:08:01;11.47;;;7.10;;
51558;SDS011;61650;48.882;2.092;2023-04-03T05:10:27;11.02;;;7.22;;
51558;SDS011;61650;48.882;2.092;2023-04-03T05:12:53;8.07;;;6.70;;
51558;SDS011;61650;48.882;2.092;2023-04-03T05:15:19;10.47;;;6.87;;
51558;SDS011;61650;48.882;2.092;2023-04-03T05:17:44;9.63;;;6.23;;
51558;SDS011;61650;48.882;2.092;2023-04-03T05:20:10;9.43;;;7.50;;
51558;SDS011;61650;48.882;2.092;2023-04-03T05:22:36;11.80;;;6.72;;
51558;SDS011;61650;48.882;2.092;2023-04-03T05:25:02;13.20;;;7.20;;
51558;SDS011;61650;48.882;2.092;2023-04-03T05:27:28;11.25;;;6.85;;
51558;SDS011;61650;48.882;2.092;2023-04-03T05:29:54;9.20;;;6.80;;
51558;SDS011;61650;48.882;2.092;2023-04-03T05:32:20;12.47;;;7.93;;
51558;SDS011;61650;48.882;2.092;2023-04-03T05:34:47;11.48;;;7.30;;
51558;SDS011;61650;48.882;2.092;2023-04-03T05:37:12;9.47;;;7.13;;
51558;SDS011;61650;48.882;2.092;2023-04-03T05:39:38;11.73;;;8.00;;
51558;SDS011;61650;48.882;2.092;2023-04-03T05:42:05;9.65;;;6.90;;
51558;SDS011;61650;48.882;2.092;2023-04-03T05:44:31;12.50;;;7.82;;
51558;SDS011;61650;48.882;2.092;2023-04-03T05:46:57;10.37;;;7.63;;
51558;SDS011;61650;48.882;2.092;2023-04-03T05:49:22;13.97;;;7.53;;
51558;SDS011;61650;48.882;2.092;2023-04-03T05:51:48;11.73;;;7.50;;
51558;SDS011;61650;48.882;2.092;2023-04-03T05:54:20;10.20;;;7.73;;
51558;SDS011;61650;48.882;2.092;2023-04-03T05:56:49;10.90;;;6.43;;
51558;SDS011;61650;48.882;2.092;2023-04-03T05:59:15;10.45;;;6.70;;
51558;SDS011;61650;48.882;2.092;2023-04-03T06:01:42;12.10;;;7.40;;
51558;SDS011;61650;48.882;2.092;2023-04-03T06:04:07;10.57;;;7.50;;
51558;SDS011;61650;48.882;2.092;2023-04-03T06:06:50;12.15;;;7.05;;
51558;SDS011;61650;48.882;2.092;2023-04-03T06:09:21;10.98;;;7.80;;
51558;SDS011;61650;48.882;2.092;2023-04-03T06:11:48;11.55;;;7.88;;
51558;SDS011;61650;48.882;2.092;2023-04-03T06:14:14;11.33;;;7.70;;
51558;SDS011;61650;48.882;2.092;2023-04-03T06:16:39;9.77;;;7.53;;
51558;SDS011;61650;48.882;2.092;2023-04-03T06:19:06;10.30;;;7.17;;
51558;SDS011;61650;48.882;2.092;2023-04-03T06:21:32;11.20;;;7.63;;
51558;SDS011;61650;48.882;2.092;2023-04-03T06:23:58;12.10;;;7.80;;
51558;SDS011;61650;48.882;2.092;2023-04-03T06:26:24;13.00;;;7.40;;
51558;SDS011;61650;48.882;2.092;2023-04-03T06:28:50;11.37;;;7.07;;
51558;SDS011;61650;48.882;2.092;2023-04-03T06:31:15;12.23;;;7.30;;
51558;SDS011;61650;48.882;2.092;2023-04-03T06:33:41;11.65;;;7.53;;
51558;SDS011;61650;48.882;2.092;2023-04-03T06:36:07;11.43;;;7.63;;
51558;SDS011;61650;48.882;2.092;2023-04-03T06:38:35;12.55;;;7.85;;
51558;SDS011;61650;48.882;2.092;2023-04-03T06:41:00;10.10;;;7.07;;
51558;SDS011;61650;48.882;2.092;2023-04-03T06:43:26;12.23;;;7.87;;
51558;SDS011;61650;48.882;2.092;2023-04-03T06:45:51;14.57;;;8.60;;
51558;SDS011;61650;48.882;2.092;2023-04-03T06:48:17;11.00;;;7.40;;
51558;SDS011;61650;48.882;2.092;2023-04-03T06:50:43;9.50;;;6.90;;
51558;SDS011;61650;48.882;2.092;2023-04-03T06:53:09;10.07;;;7.20;;
51558;SDS011;61650;48.882;2.092;2023-04-03T06:55:35;12.80;;;7.97;;
51558;SDS011;61650;48.882;2.092;2023-04-03T06:58:01;11.33;;;7.93;;
51558;SDS011;61650;48.882;2.092;2023-04-03T07:00:27;10.20;;;7.13;;
51558;SDS011;61650;48.882;2.092;2023-04-03T07:02:52;13.17;;;8.10;;
51558;SDS011;61650;48.882;2.092;2023-04-03T07:05:19;12.43;;;7.87;;
51558;SDS011;61650;48.882;2.092;2023-04-03T07:07:45;13.73;;;8.82;;
51558;SDS011;61650;48.882;2.092;2023-04-03T07:10:10;10.20;;;7.67;;
51558;SDS011;61650;48.882;2.092;2023-04-03T07:12:36;11.20;;;7.30;;
51558;SDS011;61650;48.882;2.092;2023-04-03T07:15:03;10.40;;;7.53;;
51558;SDS011;61650;48.882;2.092;2023-04-03T07:17:30;12.02;;;8.63;;
51558;SDS011;61650;48.882;2.092;2023-04-03T07:19:56;12.65;;;7.88;;
51558;SDS011;61650;48.882;2.092;2023-04-03T07:22:21;10.70;;;7.43;;
51558;SDS011;61650;48.882;2.092;2023-04-03T07:24:47;11.80;;;8.27;;
51558;SDS011;61650;48.882;2.092;2023-04-03T07:27:13;13.03;;;7.90;;
51558;SDS011;61650;48.882;2.092;2023-04-03T07:29:38;12.40;;;8.00;;
51558;SDS011;61650;48.882;2.092;2023-04-03T07:32:05;10.35;;;6.90;;
51558;SDS011;61650;48.882;2.092;2023-04-03T07:34:31;10.18;;;7.78;;
51558;SDS011;61650;48.882;2.092;2023-04-03T07:36:57;10.98;;;6.82;;
51558;SDS011;61650;48.882;2.092;2023-04-03T07:39:23;10.90;;;6.97;;
51558;SDS011;61650;48.882;2.092;2023-04-03T07:41:49;10.40;;;7.23;;
51558;SDS011;61650;48.882;2.092;2023-04-03T07:44:15;9.30;;;7.07;;
51558;SDS011;61650;48.882;2.092;2023-04-03T07:46:41;10.60;;;6.50;;
51558;SDS011;61650;48.882;2.092;2023-04-03T07:49:07;8.00;;;6.60;;
51558;SDS011;61650;48.882;2.092;2023-04-03T07:51:33;12.63;;;6.67;;
51558;SDS011;61650;48.882;2.092;2023-04-03T07:53:58;9.90;;;6.83;;
51558;SDS011;61650;48.882;2.092;2023-04-03T07:56:24;8.57;;;6.90;;
51558;SDS011;61650;48.882;2.092;2023-04-03T07:58:50;8.80;;;6.40;;
51558;SDS011;61650;48.882;2.092;2023-04-03T08:01:15;8.73;;;6.43;;
51558;SDS011;61650;48.882;2.092;2023-04-03T08:03:41;8.93;;;6.15;;
51558;SDS011;61650;48.882;2.092;2023-04-03T08:06:07;8.57;;;6.53;;
51558;SDS011;61650;48.882;2.092;2023-04-03T08:08:33;9.60;;;6.65;;
51558;SDS011;61650;48.882;2.092;2023-04-03T08:11:00;18.65;;;9.35;;
51558;SDS011;61650;48.882;2.092;2023-04-03T08:13:27;10.18;;;6.15;;
51558;SDS011;61650;48.882;2.092;2023-04-03T08:15:53;10.88;;;7.10;;
51558;SDS011;61650;48.882;2.092;2023-04-03T08:18:20;10.57;;;6.57;;
51558;SDS011;61650;48.882;2.092;2023-04-03T08:20:49;10.43;;;6.40;;
51558;SDS011;61650;48.882;2.092;2023-04-03T08:23:15;9.57;;;5.65;;
51558;SDS011;61650;48.882;2.092;2023-04-03T08:25:41;8.32;;;6.10;;
51558;SDS011;61650;48.882;2.092;2023-04-03T08:28:08;10.05;;;7.18;;
51558;SDS011;61650;48.882;2.092;2023-04-03T08:30:34;7.97;;;5.35;;
51558;SDS011;61650;48.882;2.092;2023-04-03T08:33:01;9.40;;;6.25;;
51558;SDS011;61650;48.882;2.092;2023-04-03T08:35:27;7.18;;;5.13;;
51558;SDS011;61650;48.882;2.092;2023-04-03T08:37:53;8.32;;;6.03;;
51558;SDS011;61650;48.882;2.092;2023-04-03T08:40:18;7.63;;;5.70;;
51558;SDS011;61650;48.882;2.092;2023-04-03T08:48:00;5.95;;;4.47;;
51558;SDS011;61650;48.882;2.092;2023-04-03T08:50:39;6.82;;;5.13;;
51558;SDS011;61650;48.882;2.092;2023-04-03T08:53:12;7.63;;;5.25;;
51558;SDS011;61650;48.882;2.092;2023-04-03T08:55:48;7.30;;;5.07;;
51558;SDS011;61650;48.882;2.092;2023-04-03T08:58:19;5.95;;;4.57;;
51558;SDS011;61650;48.882;2.092;2023-04-03T09:00:54;6.10;;;4.80;;
51558;SDS011;61650;48.882;2.092;2023-04-03T09:03:28;5.38;;;3.47;;
51558;SDS011;61650;48.882;2.092;2023-04-03T09:06:06;6.95;;;3.90;;
51558;SDS011;61650;48.882;2.092;2023-04-03T09:12:04;5.80;;;4.05;;
51558;SDS011;61650;48.882;2.092;2023-04-03T09:16:57;5.35;;;3.33;;
51558;SDS011;61650;48.882;2.092;2023-04-03T09:22:02;4.15;;;3.75;;
51558;SDS011;61650;48.882;2.092;2023-04-03T09:24:28;4.80;;;4.35;;
51558;SDS011;61650;48.882;2.092;2023-04-03T09:26:58;4.50;;;4.10;;
51558;SDS011;61650;48.882;2.092;2023-04-03T09:29:28;5.43;;;4.03;;
51558;SDS011;61650;48.882;2.092;2023-04-03T09:31:59;5.50;;;4.27;;
51558;SDS011;61650;48.882;2.092;2023-04-03T09:34:34;7.35;;;4.00;;
51558;SDS011;61650;48.882;2.092;2023-04-03T09:37:03;4.95;;;3.67;;
51558;SDS011;61650;48.882;2.092;2023-04-03T09:39:48;5.47;;;3.50;;
51558;SDS011;61650;48.882;2.092;2023-04-03T09:42:25;6.13;;;3.83;;
51558;SDS011;61650;48.882;2.092;2023-04-03T09:44:55;6.07;;;4.13;;
51558;SDS011;61650;48.882;2.092;2023-04-03T09:47:27;4.78;;;4.20;;
51558;SDS011;61650;48.882;2.092;2023-04-03T09:52:38;4.13;;;3.30;;
51558;SDS011;61650;48.882;2.092;2023-04-03T09:55:06;4.50;;;4.10;;
51558;SDS011;61650;48.882;2.092;2023-04-03T09:57:38;5.32;;;3.60;;
51558;SDS011;61650;48.882;2.092;2023-04-03T10:00:04;4.07;;;3.67;;
51558;SDS011;61650;48.882;2.092;2023-04-03T10:02:32;8.38;;;3.92;;
51558;SDS011;61650;48.882;2.092;2023-04-03T10:05:01;4.72;;;3.83;;
51558;SDS011;61650;48.882;2.092;2023-04-03T10:07:34;3.75;;;3.25;;
51558;SDS011;61650;48.882;2.092;2023-04-03T10:12:39;4.25;;;3.63;;
51558;SDS011;61650;48.882;2.092;2023-04-03T10:15:12;3.63;;;3.27;;
51558;SDS011;61650;48.882;2.092;2023-04-03T10:18:00;4.07;;;3.50;;
51558;SDS011;61650;48.882;2.092;2023-04-03T10:28:53;3.40;;;3.10;;
51558;SDS011;61650;48.882;2.092;2023-04-03T10:31:44;3.45;;;2.97;;
51558;SDS011;61650;48.882;2.092;2023-04-03T10:34:21;4.05;;;3.30;;
51558;SDS011;61650;48.882;2.092;2023-04-03T10:50:10;3.38;;;3.03;;
51558;SDS011;61650;48.882;2.092;2023-04-03T10:53:14;3.92;;;3.15;;
51558;SDS011;61650;48.882;2.092;2023-04-03T10:58:51;3.30;;;2.80;;
51558;SDS011;61650;48.882;2.092;2023-04-03T11:01:38;3.35;;;3.00;;
51558;SDS011;61650;48.882;2.092;2023-04-03T11:04:07;3.53;;;3.10;;
51558;SDS011;61650;48.882;2.092;2023-04-03T11:06:39;3.53;;;2.90;;
51558;SDS011;61650;48.882;2.092;2023-04-03T11:11:45;3.20;;;2.75;;
51558;SDS011;61650;48.882;2.092;2023-04-03T11:19:43;3.37;;;2.83;;
51558;SDS011;61650;48.882;2.092;2023-04-03T11:25:19;2.67;;;2.43;;
51558;SDS011;61650;48.882;2.092;2023-04-03T11:27:51;2.90;;;2.60;;
51558;SDS011;61650;48.882;2.092;2023-04-03T11:33:21;2.73;;;2.47;;
51558;SDS011;61650;48.882;2.092;2023-04-03T11:35:57;3.17;;;2.73;;
51558;SDS011;61650;48.882;2.092;2023-04-03T11:38:37;4.03;;;2.57;;
51558;SDS011;61650;48.882;2.092;2023-04-03T11:41:08;2.70;;;2.50;;
51558;SDS011;61650;48.882;2.092;2023-04-03T11:43:39;6.27;;;2.53;;
51558;SDS011;61650;48.882;2.092;2023-04-03T11:46:07;5.60;;;3.00;;
51558;SDS011;61650;48.882;2.092;2023-04-03T11:53:45;4.50;;;2.67;;
51558;SDS011;61650;48.882;2.092;2023-04-03T11:59:34;3.43;;;2.47;;
51558;SDS011;61650;48.882;2.092;2023-04-03T12:04:18;2.57;;;2.33;;
51558;SDS011;61650;48.882;2.092;2023-04-03T12:09:22;4.93;;;2.67;;
51558;SDS011;61650;48.882;2.092;2023-04-03T12:11:58;2.70;;;2.47;;
51558;SDS011;61650;48.882;2.092;2023-04-03T12:14:26;2.20;;;1.93;;
51558;SDS011;61650;48.882;2.092;2023-04-03T12:16:54;2.80;;;2.23;;
51558;SDS011;61650;48.882;2.092;2023-04-03T12:19:38;4.40;;;2.20;;
51558;SDS011;61650;48.882;2.092;2023-04-03T12:22:12;2.93;;;2.63;;
51558;SDS011;61650;48.882;2.092;2023-04-03T12:24:40;4.10;;;2.43;;
51558;SDS011;61650;48.882;2.092;2023-04-03T12:35:21;3.70;;;2.70;;
51558;SDS011;61650;48.882;2.092;2023-04-03T12:45:52;3.43;;;2.87;;
51558;SDS011;61650;48.882;2.092;2023-04-03T12:48:25;2.50;;;2.30;;
51558;SDS011;61650;48.882;2.092;2023-04-03T12:50:53;3.10;;;2.60;;
51558;SDS011;61650;48.882;2.092;2023-04-03T12:53:22;2.93;;;2.60;;
51558;SDS011;61650;48.882;2.092;2023-04-03T12:58:45;3.47;;;2.93;;
51558;SDS011;61650;48.882;2.092;2023-04-03T13:01:12;3.27;;;2.50;;
51558;SDS011;61650;48.882;2.092;2023-04-03T13:03:43;3.03;;;2.00;;
51558;SDS011;61650;48.882;2.092;2023-04-03T13:06:28;4.93;;;2.90;;
51558;SDS011;61650;48.882;2.092;2023-04-03T13:08:59;3.20;;;2.57;;
51558;SDS011;61650;48.882;2.092;2023-04-03T13:11:36;5.47;;;3.73;;
51558;SDS011;61650;48.882;2.092;2023-04-03T13:14:17;3.00;;;2.57;;
51558;SDS011;61650;48.882;2.092;2023-04-03T13:19:22;3.07;;;2.63;;
51558;SDS011;61650;48.882;2.092;2023-04-03T13:21:55;3.00;;;2.70;;
51558;SDS011;61650;48.882;2.092;2023-04-03T13:24:22;3.80;;;2.77;;
51558;SDS011;61650;48.882;2.092;2023-04-03T13:26:48;2.40;;;2.20;;
51558;SDS011;61650;48.882;2.092;2023-04-03T13:29:19;2.90;;;2.60;;
51558;SDS011;61650;48.882;2.092;2023-04-03T13:31:54;3.13;;;2.50;;
51558;SDS011;61650;48.882;2.092;2023-04-03T13:34:21;2.53;;;2.03;;
51558;SDS011;61650;48.882;2.092;2023-04-03T13:41:45;2.80;;;2.20;;
51558;SDS011;61650;48.882;2.092;2023-04-03T13:46:52;2.70;;;2.33;;
51558;SDS011;61650;48.882;2.092;2023-04-03T13:49:37;2.83;;;2.40;;
51558;SDS011;61650;48.882;2.092;2023-04-03T13:52:27;2.53;;;2.10;;
51558;SDS011;61650;48.882;2.092;2023-04-03T13:55:51;3.77;;;2.17;;
51558;SDS011;61650;48.882;2.092;2023-04-03T13:58:33;2.03;;;1.70;;
51558;SDS011;61650;48.882;2.092;2023-04-03T14:03:46;3.17;;;2.87;;
51558;SDS011;61650;48.882;2.092;2023-04-03T14:06:26;3.03;;;2.03;;
51558;SDS011;61650;48.882;2.092;2023-04-03T14:08:52;2.90;;;2.40;;
51558;SDS011;61650;48.882;2.092;2023-04-03T14:11:19;4.40;;;2.60;;
51558;SDS011;61650;48.882;2.092;2023-04-03T14:13:52;2.83;;;2.33;;
51558;SDS011;61650;48.882;2.092;2023-04-03T14:16:20;3.07;;;2.50;;
51558;SDS011;61650;48.882;2.092;2023-04-03T14:18:47;2.47;;;2.07;;
51558;SDS011;61650;48.882;2.092;2023-04-03T14:21:15;2.50;;;2.30;;
51558;SDS011;61650;48.882;2.092;2023-04-03T14:23:43;4.10;;;2.57;;
51558;SDS011;61650;48.882;2.092;2023-04-03T14:26:22;2.33;;;2.13;;
51558;SDS011;61650;48.882;2.092;2023-04-03T14:28:50;4.10;;;2.07;;
51558;SDS011;61650;48.882;2.092;2023-04-03T14:31:18;2.50;;;2.23;;
51558;SDS011;61650;48.882;2.092;2023-04-03T14:33:45;2.73;;;2.30;;
51558;SDS011;61650;48.882;2.092;2023-04-03T14:36:30;2.63;;;2.43;;
51558;SDS011;61650;48.882;2.092;2023-04-03T14:38:59;3.07;;;1.93;;
51558;SDS011;61650;48.882;2.092;2023-04-03T14:41:26;2.57;;;2.07;;
51558;SDS011;61650;48.882;2.092;2023-04-03T14:43:52;2.47;;;2.27;;
51558;SDS011;61650;48.882;2.092;2023-04-03T14:48:49;2.80;;;2.60;;
51558;SDS011;61650;48.882;2.092;2023-04-03T14:51:15;3.60;;;2.50;;
51558;SDS011;61650;48.882;2.092;2023-04-03T14:53:41;2.80;;;2.20;;
51558;SDS011;61650;48.882;2.092;2023-04-03T14:56:16;2.40;;;2.20;;
51558;SDS011;61650;48.882;2.092;2023-04-03T14:58:47;3.33;;;2.63;;
51558;SDS011;61650;48.882;2.092;2023-04-03T15:01:15;2.57;;;2.20;;
51558;SDS011;61650;48.882;2.092;2023-04-03T15:03:42;2.47;;;2.27;;
51558;SDS011;61650;48.882;2.092;2023-04-03T15:06:11;2.90;;;2.03;;
51558;SDS011;61650;48.882;2.092;2023-04-03T15:08:38;2.90;;;2.47;;
51558;SDS011;61650;48.882;2.092;2023-04-03T15:11:05;4.10;;;2.13;;
51558;SDS011;61650;48.882;2.092;2023-04-03T15:13:32;2.00;;;1.90;;
51558;SDS011;61650;48.882;2.092;2023-04-03T15:15:57;2.23;;;2.03;;
51558;SDS011;61650;48.882;2.092;2023-04-03T15:18:25;2.60;;;2.40;;
51558;SDS011;61650;48.882;2.092;2023-04-03T15:20:52;2.60;;;2.37;;
51558;SDS011;61650;48.882;2.092;2023-04-03T15:23:20;2.60;;;2.10;;
51558;SDS011;61650;48.882;2.092;2023-04-03T15:25:51;2.40;;;1.90;;
51558;SDS011;61650;48.882;2.092;2023-04-03T15:31:03;1.90;;;1.80;;
51558;SDS011;61650;48.882;2.092;2023-04-03T15:33:30;3.30;;;2.77;;
51558;SDS011;61650;48.882;2.092;2023-04-03T15:35:56;2.47;;;2.00;;
51558;SDS011;61650;48.882;2.092;2023-04-03T15:38:22;2.93;;;2.23;;
51558;SDS011;61650;48.882;2.092;2023-04-03T15:40:47;2.73;;;2.53;;
51558;SDS011;61650;48.882;2.092;2023-04-03T15:43:13;2.92;;;2.10;;
51558;SDS011;61650;48.882;2.092;2023-04-03T15:45:40;2.13;;;1.80;;
51558;SDS011;61650;48.882;2.092;2023-04-03T15:48:06;2.87;;;2.10;;
51558;SDS011;61650;48.882;2.092;2023-04-03T15:50:33;3.23;;;2.60;;
51558;SDS011;61650;48.882;2.092;2023-04-03T15:52:59;2.90;;;2.70;;
51558;SDS011;61650;48.882;2.092;2023-04-03T15:55:27;2.53;;;2.10;;
51558;SDS011;61650;48.882;2.092;2023-04-03T15:57:55;2.90;;;2.40;;
51558;SDS011;61650;48.882;2.092;2023-04-03T16:00:22;3.93;;;3.07;;
51558;SDS011;61650;48.882;2.092;2023-04-03T16:02:50;2.60;;;2.37;;
51558;SDS011;61650;48.882;2.092;2023-04-03T16:05:22;1.93;;;1.80;;
51558;SDS011;61650;48.882;2.092;2023-04-03T16:07:47;3.13;;;2.83;;
51558;SDS011;61650;48.882;2.092;2023-04-03T16:10:14;2.83;;;2.43;;
51558;SDS011;61650;48.882;2.092;2023-04-03T16:12:41;3.07;;;2.40;;
51558;SDS011;61650;48.882;2.092;2023-04-03T16:15:07;2.70;;;2.50;;
51558;SDS011;61650;48.882;2.092;2023-04-03T16:17:34;4.50;;;2.33;;
51558;SDS011;61650;48.882;2.092;2023-04-03T16:20:01;3.10;;;2.30;;
51558;SDS011;61650;48.882;2.092;2023-04-03T16:22:28;2.77;;;2.27;;
51558;SDS011;61650;48.882;2.092;2023-04-03T16:24:54;3.70;;;1.83;;
51558;SDS011;61650;48.882;2.092;2023-04-03T16:27:21;2.47;;;2.27;;
51558;SDS011;61650;48.882;2.092;2023-04-03T16:29:52;2.30;;;2.03;;
51558;SDS011;61650;48.882;2.092;2023-04-03T16:32:20;2.63;;;1.83;;
51558;SDS011;61650;48.882;2.092;2023-04-03T16:34:47;2.33;;;2.13;;
51558;SDS011;61650;48.882;2.092;2023-04-03T16:37:14;3.20;;;2.20;;
51558;SDS011;61650;48.882;2.092;2023-04-03T16:39:40;2.23;;;2.03;;
51558;SDS011;61650;48.882;2.092;2023-04-03T16:42:07;3.70;;;2.07;;
51558;SDS011;61650;48.882;2.092;2023-04-03T16:44:34;2.00;;;1.80;;
51558;SDS011;61650;48.882;2.092;2023-04-03T16:47:00;2.23;;;2.00;;